Jennings, LA

1:19 PM CDT on August 28, 2016 (GMT -0500)
Jennings

Weather History for K3R7 - February, 2014

Change the Weather History Date:

Thursday, February 6, 2014

  Actual Average (KLCH) Record (KLCH)
Temperature  
Mean Temperature 34 °F 53 °F  
Max Temperature 39 °F 63 °F 80 °F (1969)
Min Temperature 30 °F 44 °F 21 °F (1912)
Degree Days  
Heating Degree Days 30 12  
Month to date heating degree days 73  
Since 1 July heating degree days 1064  
Cooling Degree Days 0 0  
Month to date cooling degree days 0  
Year to date cooling degree days 10  
Moisture  
Dew Point 28 °F    
Average Humidity 78    
Maximum Humidity 88    
Minimum Humidity 66    
Precipitation  
Precipitation 0.00 in 0.12 in 1.97 in (1974)
Month to date precipitation 0.78  
Year to date precipitation 6.01  
Snow  
Snow 0.00 in 0.00 in T in (2014)
Month to date snowfall 0.0  
Since 1 July snowfall T  
Snow Depth -    
Sea Level Pressure  
Sea Level Pressure 30.37 in    
Wind  
Wind Speed 13 mph (NNE)    
Max Wind Speed 20 mph    
Max Gust Speed 28 mph    
Visibility 10 miles    
Events Snow    
T = Trace of Precipitation, MM = Missing Value Source: NWS Daily Summary

Daily Weather History Graph

Daily Weather History Graph

Search for Another Location

Airport or City:

Trip Planner

Search our weather history database for the weather conditions in past years. The results will help you decide how hot, cold, wet, or windy it might be!

Date:

Astronomy

Feb. 06, 2014 Rise Set
Actual Time 6:58 AM CST 5:51 PM CST
Civil Twilight 6:33 AM CST 6:16 PM CST
Nautical Twilight 6:04 AM CST 6:45 PM CST
Astronomical Twilight 5:36 AM CST 7:13 PM CST
Moon 11:25 AM CST (2/6) 12:14 AM CST (2/6)
Length of Visible Light 11h 43m
Length of Day
10h 53m
Waxing Crescent, 49% of the Moon is Illuminated
Feb 6
Waxing Crescent
Feb 6
First Quarter
Feb 14
Full
Feb 22
Last Quarter
Mar 1
New

Hourly Weather History & Observations

Time (CST) Temp. Windchill Dew Point Humidity Pressure Visibility Wind Dir Wind Speed Gust Speed Precip Events Conditions
12:15 AM 35.6 °F 27.1 °F 29.3 °F 78% 30.35 in 10.0 mi NNE 12.7 mph 19.6 mph N/A   Overcast
12:35 AM 35.1 °F 25.2 °F 28.2 °F 76% 30.35 in 10.0 mi NE 16.1 mph 21.9 mph N/A   Overcast
12:55 AM 34.7 °F 25.9 °F 28.2 °F 77% 30.36 in 10.0 mi NE 12.7 mph 18.4 mph N/A   Overcast
1:15 AM 34.2 °F 24.8 °F 28.2 °F 79% 30.37 in 10.0 mi NNE 13.8 mph 19.6 mph N/A   Overcast
1:35 AM 33.8 °F 24.3 °F 27.5 °F 78% 30.35 in 10.0 mi NNE 13.8 mph 19.6 mph N/A   Mostly Cloudy
1:55 AM 33.3 °F 22.8 °F 27.7 °F 80% 30.35 in 10.0 mi NNE 16.1 mph 23.0 mph N/A   Overcast
2:15 AM 32.9 °F 22.0 °F 26.1 °F 76% 30.34 in 10.0 mi NNE 17.3 mph - N/A   Mostly Cloudy
2:35 AM 32.9 °F 23.2 °F 26.2 °F 76% 30.34 in 10.0 mi NNE 13.8 mph 18.4 mph N/A   Mostly Cloudy
2:55 AM 32.5 °F 22.7 °F 26.1 °F 77% 30.33 in 10.0 mi NNE 13.8 mph 18.4 mph N/A   Mostly Cloudy
3:15 AM 32.4 °F 23.0 °F 26.4 °F 79% 30.33 in 10.0 mi NNE 12.7 mph - N/A   Overcast
3:35 AM 32.2 °F 21.8 °F 26.4 °F 79% 30.32 in 10.0 mi NNE 15.0 mph 21.9 mph N/A   Overcast
3:55 AM 32.2 °F 22.3 °F 26.2 °F 79% 30.31 in 10.0 mi NNE 13.8 mph 24.2 mph N/A   Overcast
4:15 AM 32.2 °F 22.3 °F 26.1 °F 78% 30.32 in 10.0 mi NNE 13.8 mph - N/A   Overcast
4:35 AM 32.0 °F 22.1 °F 26.2 °F 79% 30.32 in 10.0 mi NNE 13.8 mph 20.7 mph N/A   Overcast
4:55 AM 32.0 °F 21.2 °F 25.7 °F 78% 30.33 in 10.0 mi NNE 16.1 mph 23.0 mph N/A   Overcast
5:15 AM 32.2 °F 22.7 °F 26.1 °F 78% 30.34 in 10.0 mi NNE 12.7 mph - N/A   Overcast
5:35 AM 32.2 °F 22.7 °F 26.4 °F 79% 30.34 in 10.0 mi NNE 12.7 mph - N/A   Overcast
5:55 AM 32.2 °F 22.3 °F 26.6 °F 80% 30.36 in 10.0 mi NNE 13.8 mph - N/A   Overcast
6:15 AM 32.2 °F 20.7 °F 26.6 °F 80% 30.37 in 10.0 mi North 18.4 mph 21.9 mph N/A   Overcast
6:35 AM 32.2 °F 22.3 °F 26.6 °F 80% 30.38 in 10.0 mi North 13.8 mph 18.4 mph N/A   Overcast
6:55 AM 32.4 °F 23.5 °F 27.1 °F 81% 30.38 in 10.0 mi North 11.5 mph 18.4 mph N/A   Overcast
7:15 AM 32.0 °F 20.8 °F 26.6 °F 80% 30.37 in 10.0 mi NNE 17.3 mph 20.7 mph N/A   Overcast
7:35 AM 32.0 °F 21.2 °F 26.6 °F 80% 30.36 in 10.0 mi NNE 16.1 mph 20.7 mph N/A   Overcast
7:55 AM 32.2 °F 21.4 °F 26.4 °F 79% 30.37 in 10.0 mi NNE 16.1 mph 23.0 mph N/A   Overcast
8:15 AM 32.2 °F 22.7 °F 26.2 °F 79% 30.39 in 10.0 mi NNE 12.7 mph 18.4 mph N/A   Overcast
8:35 AM 32.0 °F 23.6 °F 25.5 °F 77% 30.45 in 10.0 mi North 10.4 mph 20.7 mph N/A   Overcast
8:55 AM 32.4 °F 22.1 °F 26.4 °F 79% 30.47 in 10.0 mi North 15.0 mph 19.6 mph N/A   Overcast
9:15 AM 32.5 °F 22.3 °F 26.2 °F 78% 30.47 in 10.0 mi North 15.0 mph - N/A   Overcast
9:35 AM 32.9 °F 21.6 °F 26.4 °F 77% 30.44 in 10.0 mi North 18.4 mph - N/A   Overcast
9:55 AM 32.9 °F 22.4 °F 26.4 °F 77% 30.45 in 10.0 mi North 16.1 mph 21.9 mph N/A   Overcast
10:15 AM 32.5 °F 21.9 °F 26.4 °F 78% 30.43 in 10.0 mi North 16.1 mph 25.3 mph N/A   Overcast
10:35 AM 32.5 °F 21.9 °F 26.1 °F 77% 30.43 in 10.0 mi NNE 16.1 mph 23.0 mph N/A Snow Light Snow
10:55 AM 32.9 °F 21.6 °F 25.9 °F 75% 30.41 in 10.0 mi NNE 18.4 mph 24.2 mph N/A   Overcast
11:15 AM 34.0 °F 23.8 °F 26.8 °F 75% 30.40 in 10.0 mi NNE 16.1 mph 21.9 mph N/A   Overcast
11:35 AM 34.9 °F 24.9 °F 27.0 °F 73% 30.40 in 10.0 mi NE 16.1 mph 24.2 mph N/A   Overcast
11:55 AM 35.6 °F 24.8 °F 26.8 °F 70% 30.38 in 10.0 mi NNE 19.6 mph 27.6 mph N/A   Mostly Cloudy
12:15 PM 34.7 °F 24.0 °F 26.6 °F 72% 30.37 in 10.0 mi NE 18.4 mph 26.5 mph N/A   Mostly Cloudy
12:35 PM 35.2 °F 25.0 °F 27.1 °F 72% 30.36 in 10.0 mi NNE 17.3 mph 23.0 mph N/A   Scattered Clouds
12:55 PM 35.6 °F 25.5 °F 27.5 °F 72% 30.34 in 10.0 mi NNE 17.3 mph 21.9 mph N/A   Scattered Clouds
1:15 PM 36.1 °F 26.9 °F 28.2 °F 73% 30.33 in 10.0 mi NNE 15.0 mph - N/A   Mostly Cloudy
1:35 PM 36.9 °F 27.5 °F 28.4 °F 71% 30.33 in 10.0 mi NNE 16.1 mph 21.9 mph N/A   Mostly Cloudy
1:55 PM 39.0 °F 31.8 °F 28.4 °F 66% 30.34 in 10.0 mi NNE 11.5 mph 16.1 mph N/A   Scattered Clouds
2:15 PM 39.6 °F 33.5 °F 29.3 °F 67% 30.34 in 10.0 mi NNE 9.2 mph - N/A   Scattered Clouds
2:35 PM 39.4 °F 32.7 °F 28.8 °F 66% 30.35 in 10.0 mi North 10.4 mph - N/A   Scattered Clouds
2:55 PM 39.2 °F 32.5 °F 29.3 °F 68% 30.35 in 10.0 mi North 10.4 mph - N/A   Mostly Cloudy
3:15 PM 38.8 °F 31.6 °F 29.1 °F 68% 30.36 in 10.0 mi NNE 11.5 mph - N/A   Overcast
3:35 PM 38.5 °F 30.3 °F 29.1 °F 69% 30.36 in 10.0 mi NNE 13.8 mph 19.6 mph N/A   Overcast
3:55 PM 38.3 °F 31.4 °F 29.1 °F 70% 30.36 in 10.0 mi North 10.4 mph - N/A   Overcast
4:15 PM 38.5 °F 31.6 °F 29.8 °F 71% 30.36 in 10.0 mi NNE 10.4 mph - N/A   Overcast
4:35 PM 39.2 °F 33.6 °F 29.8 °F 69% 30.36 in 10.0 mi NNE 8.1 mph - N/A   Overcast
4:55 PM 38.7 °F 32.4 °F 29.8 °F 71% 30.36 in 10.0 mi NNE 9.2 mph - N/A   Scattered Clouds
5:15 PM 38.3 °F 32.5 °F 30.0 °F 72% 30.36 in 10.0 mi NNE 8.1 mph - N/A   Clear
5:35 PM 37.4 °F 30.8 °F 30.0 °F 75% 30.36 in 10.0 mi NNE 9.2 mph - N/A   Clear
5:55 PM 36.3 °F 30.8 °F 30.0 °F 78% 30.36 in 10.0 mi NNE 6.9 mph - N/A   Clear
6:15 PM 35.6 °F 28.0 °F 29.8 °F 80% 30.35 in 10.0 mi NNE 10.4 mph - N/A   Clear
6:35 PM 34.9 °F 26.6 °F 30.2 °F 83% 30.35 in 10.0 mi NNE 11.5 mph - N/A   Scattered Clouds
6:55 PM 33.8 °F 26.4 °F 29.3 °F 84% 30.36 in 10.0 mi NNE 9.2 mph - N/A   Clear
7:15 PM 33.3 °F 25.1 °F 28.9 °F 84% 30.36 in 10.0 mi NNE 10.4 mph - N/A   Clear
7:35 PM 32.9 °F 24.1 °F 28.8 °F 85% 30.36 in 10.0 mi NNE 11.5 mph - N/A   Clear
7:55 PM 33.1 °F 24.9 °F 28.9 °F 85% 30.36 in 10.0 mi NNE 10.4 mph - N/A   Mostly Cloudy
8:15 PM 33.1 °F 24.4 °F 28.6 °F 84% 30.36 in 10.0 mi NNE 11.5 mph - N/A   Overcast
8:35 PM 33.1 °F 24.9 °F 28.6 °F 84% 30.37 in 10.0 mi NNE 10.4 mph - N/A   Overcast
8:55 PM 32.2 °F 25.8 °F 28.4 °F 86% 30.37 in 10.0 mi NNE 6.9 mph - N/A   Scattered Clouds
9:15 PM 32.0 °F 26.4 °F 28.2 °F 86% 30.38 in 10.0 mi NNE 5.8 mph - N/A   Scattered Clouds
9:35 PM 32.0 °F 24.2 °F 28.2 °F 86% 30.37 in 10.0 mi NNE 9.2 mph - N/A   Scattered Clouds
9:55 PM 32.0 °F 24.8 °F 28.2 °F 86% 30.38 in 10.0 mi North 8.1 mph - N/A   Clear
10:15 PM 31.5 °F 23.5 °F 27.5 °F 85% 30.37 in 10.0 mi NNE 9.2 mph - N/A   Clear
10:35 PM 31.1 °F 25.4 °F 27.5 °F 87% 30.38 in 10.0 mi NNE 5.8 mph - N/A   Scattered Clouds
10:55 PM 30.7 °F 24.1 °F 27.5 °F 88% 30.38 in 10.0 mi NNE 6.9 mph - N/A   Scattered Clouds
11:15 PM 30.7 °F 26.0 °F 27.5 °F 88% 30.38 in 10.0 mi NNE 4.6 mph - N/A   Scattered Clouds
11:35 PM 30.7 °F 24.1 °F 27.5 °F 88% 30.38 in 10.0 mi NNE 6.9 mph - N/A   Mostly Cloudy
11:55 PM 30.9 °F 23.5 °F 27.5 °F 87% 30.38 in 10.0 mi NE 8.1 mph - N/A   Mostly Cloudy